Time;durP1;ratioP1;P1;durP2;ratioP2;P2;SDS_P1;SDS_P2;PMS_P1;PMS_P2;Temp;Humidity;BMP_temperature;BMP_pressure;BME280_temperature;BME280_humidity;BME280_pressure;Samples;Min_cycle;Max_cycle;Signal;HPM_P1;HPM_P2
2021/01/03 00:02:09;;;;;;;48.13;19.17;;;-1.00;99.90;;;;;;5012097;28;20971;-73
2021/01/03 00:04:36;;;;;;;51.83;20.43;;;-1.00;99.90;;;;;;5011838;28;20429;-73
2021/01/03 00:07:03;;;;;;;52.50;20.17;;;-1.00;99.90;;;;;;5011918;28;20454;-73
2021/01/03 00:09:30;;;;;;;46.70;21.50;;;-1.00;99.90;;;;;;5011925;28;20444;-72
2021/01/03 00:11:57;;;;;;;45.63;19.37;;;-1.00;99.90;;;;;;5011750;28;20456;-72
2021/01/03 00:14:30;;;;;;;52.53;20.70;;;-1.00;99.90;;;;;;5011461;28;20868;-72
2021/01/03 00:17:00;;;;;;;49.63;20.00;;;-1.10;99.90;;;;;;5012060;28;20507;-73
2021/01/03 00:19:27;;;;;;;53.13;20.73;;;-1.00;99.90;;;;;;5011466;28;20464;-72
2021/01/03 00:21:54;;;;;;;45.13;19.67;;;-1.00;99.90;;;;;;5010600;28;20975;-73
2021/01/03 00:24:21;;;;;;;43.17;20.53;;;-1.00;99.90;;;;;;5012140;28;20961;-73
2021/01/03 00:26:48;;;;;;;55.43;20.80;;;-1.10;99.90;;;;;;5011543;28;20428;-73
2021/01/03 00:29:18;;;;;;;41.93;18.50;;;-1.10;99.90;;;;;;5011262;28;20437;-73
2021/01/03 00:31:48;;;;;;;50.13;22.30;;;-1.00;99.90;;;;;;5011219;28;20468;-73
2021/01/03 00:34:15;;;;;;;42.93;17.80;;;-1.10;99.90;;;;;;5011771;28;20441;-73
2021/01/03 00:36:42;;;;;;;53.20;18.47;;;-1.10;99.90;;;;;;5011553;28;20421;-73
2021/01/03 00:39:09;;;;;;;47.40;18.20;;;-1.10;99.90;;;;;;5011424;28;21000;-73
2021/01/03 00:41:36;;;;;;;50.77;19.93;;;-1.10;99.90;;;;;;5011334;28;20444;-73
2021/01/03 00:44:04;;;;;;;48.77;20.07;;;-1.00;99.90;;;;;;5010802;28;20448;-73
2021/01/03 00:46:31;;;;;;;63.43;20.47;;;-1.00;99.90;;;;;;5011242;28;20466;-73
2021/01/03 00:48:58;;;;;;;46.97;19.77;;;-1.00;99.90;;;;;;5011353;28;20431;-73
2021/01/03 00:51:25;;;;;;;41.60;19.07;;;-1.00;99.90;;;;;;5010847;28;20526;-73
2021/01/03 00:53:53;;;;;;;45.53;18.93;;;-1.00;99.90;;;;;;5011245;28;20452;-72
2021/01/03 00:56:20;;;;;;;53.00;22.20;;;-0.90;99.90;;;;;;5011398;28;20432;-73
2021/01/03 00:58:46;;;;;;;49.47;21.80;;;-0.90;99.90;;;;;;5011185;28;20464;-73
2021/01/03 01:01:16;;;;;;;53.07;19.80;;;-0.90;99.90;;;;;;5010929;28;20973;-74
2021/01/03 01:03:43;;;;;;;50.00;21.83;;;-0.90;99.90;;;;;;5011048;28;20447;-74
2021/01/03 01:06:11;;;;;;;51.57;20.27;;;-0.90;99.90;;;;;;5011454;28;20454;-73
2021/01/03 01:08:37;;;;;;;45.90;20.30;;;-0.80;99.90;;;;;;5010977;28;20439;-73
2021/01/03 01:11:05;;;;;;;55.93;19.97;;;-0.80;99.90;;;;;;5010985;28;20679;-73
2021/01/03 01:13:32;;;;;;;55.60;20.27;;;-0.80;99.90;;;;;;5010790;28;20437;-73
2021/01/03 01:15:59;;;;;;;50.90;20.60;;;-0.90;99.90;;;;;;5010899;28;20524;-73
2021/01/03 01:18:25;;;;;;;46.67;19.13;;;-0.90;99.90;;;;;;5010551;28;20571;-73
2021/01/03 01:20:52;;;;;;;47.83;19.20;;;-0.90;99.90;;;;;;5010886;28;20439;-73
2021/01/03 01:23:20;;;;;;;52.17;18.90;;;-0.90;99.90;;;;;;5009617;28;20480;-73
2021/01/03 01:25:46;;;;;;;54.23;19.70;;;-0.90;99.90;;;;;;5010826;28;20455;-73
2021/01/03 01:28:13;;;;;;;51.37;20.20;;;-0.90;99.90;;;;;;5010850;28;21004;-73
2021/01/03 01:30:40;;;;;;;51.17;21.93;;;-0.90;99.90;;;;;;5010761;28;20425;-73
2021/01/03 01:33:07;;;;;;;44.53;19.03;;;-0.90;99.90;;;;;;5010654;28;20444;-73
2021/01/03 01:35:35;;;;;;;51.13;17.87;;;-0.80;99.90;;;;;;5010728;28;20494;-73
2021/01/03 01:38:02;;;;;;;47.73;19.67;;;-0.80;99.90;;;;;;5010808;28;20767;-72
2021/01/03 01:40:32;;;;;;;59.40;19.00;;;-0.90;99.90;;;;;;5011093;28;20433;-73
2021/01/03 01:42:59;;;;;;;52.33;18.33;;;-1.00;99.90;;;;;;5014037;28;20455;-73
2021/01/03 01:45:28;;;;;;;45.17;19.00;;;-0.90;99.90;;;;;;5014586;28;20435;-73
2021/01/03 01:48:00;;;;;;;48.83;22.50;;;-0.90;99.90;;;;;;5014957;28;20447;-73
2021/01/03 01:50:35;;;;;;;50.33;19.03;;;-0.90;99.90;;;;;;5014693;28;20446;-74
2021/01/03 01:53:05;;;;;;;44.50;17.20;;;-0.80;99.90;;;;;;5014932;28;20443;-73
2021/01/03 01:55:39;;;;;;;48.67;18.50;;;-0.80;99.90;;;;;;5014541;28;20811;-72
2021/01/03 01:58:13;;;;;;;45.30;19.40;;;-0.80;99.90;;;;;;5014681;28;20429;-73
2021/01/03 02:00:44;;;;;;;44.10;18.77;;;-0.80;99.90;;;;;;5014190;28;20421;-72
2021/01/03 02:03:19;;;;;;;46.07;17.37;;;-0.80;99.90;;;;;;5014107;28;20441;-73
2021/01/03 02:05:53;;;;;;;39.97;17.73;;;-0.80;99.90;;;;;;5014497;28;20424;-73
2021/01/03 02:08:29;;;;;;;46.70;16.90;;;-0.90;99.90;;;;;;5014379;28;20785;-73
2021/01/03 02:11:00;;;;;;;51.70;20.30;;;-0.90;99.90;;;;;;5014451;28;20425;-73
2021/01/03 02:13:31;;;;;;;48.77;21.50;;;-0.90;99.90;;;;;;5013352;28;20514;-72
2021/01/03 02:16:00;;;;;;;60.30;20.70;;;-0.80;99.90;;;;;;5012769;28;20432;-72
2021/01/03 02:18:27;;;;;;;43.73;19.10;;;-0.80;99.90;;;;;;5012486;28;20425;-73
2021/01/03 02:21:07;;;;;;;43.07;18.60;;;-0.80;99.90;;;;;;5012638;28;20432;-72
2021/01/03 02:23:42;;;;;;;42.30;19.43;;;-0.80;99.90;;;;;;5012641;28;20431;-72
2021/01/03 02:26:11;;;;;;;42.33;17.13;;;-0.80;99.90;;;;;;5010678;28;20447;-73
2021/01/03 02:28:41;;;;;;;42.07;16.70;;;-0.80;99.90;;;;;;5012438;28;20448;-72
2021/01/03 02:31:08;;;;;;;39.93;17.27;;;-0.70;99.90;;;;;;5012604;28;20428;-73
2021/01/03 02:33:38;;;;;;;46.33;19.17;;;-0.70;99.90;;;;;;5012454;28;20423;-72
2021/01/03 02:36:11;;;;;;;41.77;16.43;;;-0.70;99.90;;;;;;5012507;28;20436;-72
2021/01/03 02:38:43;;;;;;;37.33;18.23;;;-0.70;99.90;;;;;;5012510;28;20474;-73
2021/01/03 02:41:10;;;;;;;34.70;17.30;;;-0.80;99.90;;;;;;5012335;28;20424;-72
2021/01/03 02:43:37;;;;;;;41.00;19.10;;;-0.80;99.90;;;;;;5012249;28;20479;-73
2021/01/03 02:46:04;;;;;;;38.27;16.60;;;-0.80;99.90;;;;;;5012360;28;20433;-72
2021/01/03 02:48:31;;;;;;;43.77;15.53;;;-0.80;99.90;;;;;;5012452;28;20429;-72
2021/01/03 02:50:57;;;;;;;38.83;17.87;;;-0.80;99.90;;;;;;5012181;28;20663;-72
2021/01/03 02:53:24;;;;;;;44.37;19.53;;;-0.70;99.90;;;;;;5012077;28;20444;-73
2021/01/03 02:55:51;;;;;;;37.30;16.23;;;-0.80;99.90;;;;;;5012213;28;20447;-72
2021/01/03 02:58:18;;;;;;;38.27;18.33;;;-0.80;99.90;;;;;;5012121;28;20425;-73
2021/01/03 03:00:45;;;;;;;37.63;17.77;;;-0.80;99.90;;;;;;5012231;28;20447;-73
2021/01/03 03:03:11;;;;;;;44.90;20.43;;;-0.80;99.90;;;;;;5011679;28;20522;-73
2021/01/03 03:05:38;;;;;;;37.70;18.33;;;-0.80;99.90;;;;;;5012257;28;20910;-73
2021/01/03 03:08:06;;;;;;;41.33;17.80;;;-0.70;99.90;;;;;;5012094;28;20945;-73
2021/01/03 03:10:32;;;;;;;41.60;18.37;;;-0.80;99.90;;;;;;5012095;28;20428;-73
2021/01/03 03:13:01;;;;;;;41.97;17.80;;;-0.80;99.90;;;;;;4992344;28;766595;-72
2021/01/03 03:15:32;;;;;;;44.00;17.20;;;-0.70;99.90;;;;;;5021128;28;20969;-72
2021/01/03 03:17:59;;;;;;;44.97;17.80;;;-0.80;99.90;;;;;;5012720;28;20436;-72
2021/01/03 03:20:25;;;;;;;51.20;19.30;;;-0.90;99.90;;;;;;5012809;28;20468;-72
2021/01/03 03:22:53;;;;;;;32.10;14.73;;;-0.80;99.90;;;;;;5012957;28;20829;-72
2021/01/03 03:25:20;;;;;;;35.33;17.77;;;-0.90;99.90;;;;;;5011945;28;20439;-72
2021/01/03 03:27:47;;;;;;;28.93;15.90;;;-0.80;99.90;;;;;;5012692;28;20454;-73
2021/01/03 03:30:16;;;;;;;35.30;15.30;;;-0.80;99.90;;;;;;5012479;28;20451;-72
2021/01/03 03:32:50;;;;;;;31.50;17.20;;;-0.80;99.90;;;;;;5012430;28;20510;-73
2021/01/03 03:35:18;;;;;;;37.87;17.83;;;-0.80;99.90;;;;;;5012890;28;20440;-73
2021/01/03 03:37:45;;;;;;;35.63;15.90;;;-0.90;99.90;;;;;;5012459;28;20433;-73
2021/01/03 03:40:12;;;;;;;38.03;16.93;;;-0.80;99.90;;;;;;5012442;28;20491;-73
2021/01/03 03:42:39;;;;;;;37.27;15.90;;;-0.80;99.90;;;;;;5012041;28;20452;-73
2021/01/03 03:45:07;;;;;;;40.37;17.30;;;-0.80;99.90;;;;;;5012458;28;20443;-72
2021/01/03 03:47:34;;;;;;;47.60;19.87;;;-0.80;99.90;;;;;;5012428;28;20424;-73
2021/01/03 03:50:04;;;;;;;36.53;17.10;;;-0.80;99.90;;;;;;5012113;28;20433;-72
2021/01/03 03:52:30;;;;;;;37.03;18.00;;;-0.80;99.90;;;;;;5012277;28;21019;-72
2021/01/03 03:54:57;;;;;;;43.40;17.23;;;-0.80;99.90;;;;;;5012224;28;20433;-72
2021/01/03 03:57:24;;;;;;;39.93;19.00;;;-0.80;99.90;;;;;;5011981;28;20425;-73
2021/01/03 03:59:50;;;;;;;35.17;16.20;;;-0.80;99.90;;;;;;5012080;28;20491;-72
2021/01/03 04:02:17;;;;;;;43.07;19.10;;;-0.80;99.90;;;;;;5011885;28;20456;-73
2021/01/03 04:04:45;;;;;;;51.03;20.03;;;-0.80;99.90;;;;;;5010980;28;20806;-73
2021/01/03 04:07:13;;;;;;;39.83;18.20;;;-0.80;99.90;;;;;;5012144;28;20432;-73
2021/01/03 04:09:39;;;;;;;52.30;19.20;;;-0.80;99.90;;;;;;5011941;28;20926;-72
2021/01/03 04:12:06;;;;;;;48.37;17.83;;;-0.80;99.90;;;;;;5011582;28;20552;-72
2021/01/03 04:14:33;;;;;;;48.53;18.23;;;-0.90;99.90;;;;;;5011792;28;20433;-72
2021/01/03 04:17:02;;;;;;;41.47;16.83;;;-0.90;99.90;;;;;;5011953;28;20429;-73
2021/01/03 04:19:30;;;;;;;49.63;16.97;;;-0.80;99.90;;;;;;5011001;28;20495;-72
2021/01/03 04:21:59;;;;;;;45.60;17.00;;;-0.80;99.90;;;;;;5012139;28;20453;-73
2021/01/03 04:24:28;;;;;;;36.50;17.30;;;-0.80;99.90;;;;;;5011632;28;20429;-72
2021/01/03 04:26:58;;;;;;;56.60;18.87;;;-0.80;99.90;;;;;;5010955;28;20441;-73
2021/01/03 04:29:25;;;;;;;43.17;16.80;;;-0.70;99.90;;;;;;5011522;28;20424;-72
2021/01/03 04:31:56;;;;;;;48.20;20.17;;;-0.70;99.90;;;;;;5011709;28;20521;-73
2021/01/03 04:34:24;;;;;;;53.00;18.50;;;-0.80;99.90;;;;;;5011381;28;20430;-72
2021/01/03 04:36:52;;;;;;;46.73;20.03;;;-0.80;99.90;;;;;;5011891;28;20429;-73
2021/01/03 04:39:18;;;;;;;49.07;19.80;;;-0.80;99.90;;;;;;5011341;28;20472;-73
2021/01/03 04:41:48;;;;;;;50.20;19.70;;;-0.80;99.90;;;;;;5011221;28;20445;-72
2021/01/03 04:44:20;;;;;;;45.13;18.17;;;-0.80;99.90;;;;;;5011453;28;20435;-73
2021/01/03 04:46:48;;;;;;;50.93;20.60;;;-0.80;99.90;;;;;;5011139;28;20444;-73
2021/01/03 04:49:25;;;;;;;33.97;16.90;;;-0.80;99.90;;;;;;5010853;28;20486;-72
2021/01/03 04:52:30;;;;;;;39.73;16.40;;;-0.80;99.90;;;;;;5011369;28;20468;-72
2021/01/03 04:55:10;;;;;;;48.03;17.93;;;-0.80;99.90;;;;;;4993061;28;20443;-72
2021/01/03 04:57:45;;;;;;;39.23;15.27;;;-0.70;99.90;;;;;;5010662;28;20805;-71
2021/01/03 05:00:15;;;;;;;45.73;16.77;;;-0.80;99.90;;;;;;5002702;28;20480;-72
2021/01/03 05:03:21;;;;;;;48.00;16.77;;;-0.80;99.90;;;;;;5010903;28;20459;-71
2021/01/03 05:05:49;;;;;;;37.77;16.50;;;-0.70;99.90;;;;;;5011205;28;20434;-73
2021/01/03 05:08:31;;;;;;;33.20;14.37;;;-0.70;99.90;;;;;;5010364;28;21006;-72
2021/01/03 05:11:02;;;;;;;37.83;17.10;;;-0.70;99.90;;;;;;5004611;28;20475;-72
2021/01/03 05:13:55;;;;;;;38.13;17.00;;;-0.60;99.90;;;;;;5004893;28;20503;-70
2021/01/03 05:16:22;;;;;;;39.70;16.07;;;-0.60;99.90;;;;;;4999147;28;20498;-70
2021/01/03 05:18:49;;;;;;;38.57;18.10;;;-0.70;99.90;;;;;;5000492;28;20843;-70
2021/01/03 05:21:16;;;;;;;40.67;16.13;;;-0.60;99.90;;;;;;4999013;28;20437;-70
2021/01/03 05:23:58;;;;;;;48.80;18.40;;;-0.60;99.90;;;;;;4999816;28;20424;-70
2021/01/03 05:26:31;;;;;;;43.77;17.00;;;-0.60;99.90;;;;;;5000547;28;20793;-70
2021/01/03 05:28:59;;;;;;;48.50;19.60;;;-0.70;99.90;;;;;;5003137;28;21036;-70
2021/01/03 05:31:28;;;;;;;46.10;17.77;;;-0.70;99.90;;;;;;5003139;28;20502;-70
2021/01/03 05:33:56;;;;;;;53.97;21.60;;;-0.80;99.90;;;;;;4998806;28;20439;-72
2021/01/03 05:36:29;;;;;;;44.33;16.27;;;-0.70;99.90;;;;;;4999830;28;20439;-72
2021/01/03 05:38:56;;;;;;;52.50;19.27;;;-0.70;99.90;;;;;;4998215;28;20468;-73
2021/01/03 05:41:37;;;;;;;33.50;15.67;;;-0.70;99.90;;;;;;4999935;28;20501;-72
2021/01/03 05:44:11;;;;;;;46.33;19.60;;;-0.70;99.90;;;;;;5006951;28;20439;-73
2021/01/03 05:46:42;;;;;;;62.43;20.97;;;-0.80;99.90;;;;;;5007655;28;20441;-73
2021/01/03 05:49:13;;;;;;;43.17;17.67;;;-0.80;99.90;;;;;;5010464;28;20429;-73
2021/01/03 05:51:44;;;;;;;32.63;16.07;;;-0.80;99.90;;;;;;5010657;28;20468;-72
2021/01/03 05:54:16;;;;;;;48.67;18.27;;;-0.80;99.90;;;;;;5010664;28;20437;-73
2021/01/03 05:56:44;;;;;;;45.43;18.70;;;-0.90;99.90;;;;;;5010814;28;20479;-72
2021/01/03 05:59:16;;;;;;;38.20;18.27;;;-0.90;99.90;;;;;;5009550;28;20527;-73
2021/01/03 06:01:43;;;;;;;40.70;17.30;;;-0.90;99.90;;;;;;5000581;28;20547;-73
2021/01/03 06:04:13;;;;;;;36.33;14.57;;;-0.80;99.90;;;;;;4999868;28;20425;-72
2021/01/03 06:07:04;;;;;;;38.40;16.37;;;-0.70;99.90;;;;;;4998705;28;20478;-71
2021/01/03 06:09:37;;;;;;;40.07;16.17;;;-0.80;99.90;;;;;;4999373;28;20422;-70
2021/01/03 06:12:07;;;;;;;34.83;15.77;;;-0.70;99.90;;;;;;4998636;28;20449;-70
2021/01/03 06:14:36;;;;;;;39.10;17.53;;;-0.70;99.90;;;;;;5001167;28;20491;-70
2021/01/03 06:17:15;;;;;;;36.30;16.53;;;-0.70;99.90;;;;;;4998496;28;20437;-70
2021/01/03 06:19:48;;;;;;;42.23;18.50;;;-0.70;99.90;;;;;;4998210;28;20492;-70
2021/01/03 06:22:33;;;;;;;39.97;17.13;;;-0.70;99.90;;;;;;4998816;28;20460;-70
2021/01/03 06:25:03;;;;;;;41.13;19.77;;;-0.70;99.90;;;;;;5000543;28;20508;-70
2021/01/03 06:27:32;;;;;;;37.27;16.80;;;-0.70;99.90;;;;;;5000422;28;20930;-70
2021/01/03 06:30:04;;;;;;;35.33;16.87;;;-0.70;99.90;;;;;;5008947;28;20469;-70
2021/01/03 06:33:05;;;;;;;39.43;17.80;;;-0.70;99.90;;;;;;5005313;28;20445;-70
2021/01/03 06:35:34;;;;;;;32.27;15.67;;;-0.80;99.90;;;;;;4997743;28;20802;-70
2021/01/03 06:38:09;;;;;;;30.67;17.27;;;-0.80;99.90;;;;;;5001843;28;20433;-70
2021/01/03 06:40:39;;;;;;;32.07;16.37;;;-0.80;99.90;;;;;;5001829;28;20522;-70
2021/01/03 06:43:39;;;;;;;36.57;17.17;;;-0.70;99.90;;;;;;5002017;28;20449;-70
2021/01/03 06:46:49;;;;;;;31.03;16.23;;;-0.80;99.90;;;;;;5003392;28;20923;-70
2021/01/03 06:49:54;;;;;;;43.67;17.53;;;-0.80;99.90;;;;;;5003023;28;20429;-70
2021/01/03 06:52:43;;;;;;;43.33;17.53;;;-0.80;99.90;;;;;;4990418;28;21060;-70
2021/01/03 06:55:24;;;;;;;39.53;17.23;;;-0.80;99.90;;;;;;5002419;28;20441;-70
2021/01/03 06:58:18;;;;;;;37.30;17.43;;;-0.80;99.90;;;;;;5002483;28;20422;-70
2021/01/03 07:00:48;;;;;;;39.20;17.13;;;-0.70;99.90;;;;;;5001393;28;20565;-70
2021/01/03 07:03:21;;;;;;;32.77;18.37;;;-0.80;99.90;;;;;;5001662;28;20453;-70
2021/01/03 07:05:54;;;;;;;42.57;18.17;;;-0.70;99.90;;;;;;5001979;28;20509;-70
2021/01/03 07:08:22;;;;;;;38.00;16.53;;;-0.70;99.90;;;;;;5010250;28;20818;-70
2021/01/03 07:10:49;;;;;;;33.00;16.70;;;-0.70;99.90;;;;;;5013212;28;20440;-70
2021/01/03 07:13:39;;;;;;;36.50;16.10;;;-0.70;99.90;;;;;;5012872;28;20496;-70
2021/01/03 07:16:10;;;;;;;39.27;18.00;;;-0.70;99.90;;;;;;4993677;28;20807;-69
2021/01/03 07:18:49;;;;;;;39.57;18.10;;;-0.70;99.90;;;;;;5003542;28;20436;-69
2021/01/03 07:21:36;;;;;;;38.17;18.23;;;-0.50;99.90;;;;;;5009063;28;20440;-69
2021/01/03 07:24:30;;;;;;;33.90;17.77;;;-0.40;99.90;;;;;;5012939;28;20428;-69
2021/01/03 07:27:23;;;;;;;40.73;18.67;;;-0.40;99.90;;;;;;5012844;28;20471;-69
2021/01/03 07:30:13;;;;;;;32.10;16.50;;;-0.40;99.90;;;;;;5012754;28;20439;-69
2021/01/03 07:32:47;;;;;;;43.23;17.87;;;-0.40;99.90;;;;;;5012509;28;20449;-69
2021/01/03 07:35:32;;;;;;;33.87;16.40;;;-0.30;99.90;;;;;;5012516;28;20424;-68
2021/01/03 07:38:25;;;;;;;25.23;14.33;;;-0.40;99.90;;;;;;5012519;28;20449;-69
2021/01/03 07:40:56;;;;;;;30.17;14.17;;;-0.40;99.90;;;;;;5011815;28;21162;-69
2021/01/03 07:43:24;;;;;;;31.33;15.93;;;-0.30;99.90;;;;;;4997991;28;20466;-70
2021/01/03 07:45:51;;;;;;;29.17;14.90;;;-0.30;99.90;;;;;;5012565;28;20432;-68
2021/01/03 07:48:38;;;;;;;27.40;14.67;;;-0.30;99.90;;;;;;5012402;28;20433;-69
2021/01/03 07:51:10;;;;;;;29.60;13.43;;;-0.30;99.90;;;;;;5012295;28;20955;-69
2021/01/03 07:53:39;;;;;;;27.80;12.40;;;-0.30;99.90;;;;;;5012536;28;20525;-69
2021/01/03 07:56:20;;;;;;;27.70;14.10;;;-0.40;99.90;;;;;;5011873;28;20437;-69
2021/01/03 07:58:52;;;;;;;32.60;14.83;;;-0.40;99.90;;;;;;5011569;28;20433;-69
2021/01/03 08:01:22;;;;;;;27.13;13.40;;;-0.50;99.90;;;;;;5011947;28;20406;-69
2021/01/03 08:03:49;;;;;;;27.43;13.73;;;-0.40;99.90;;;;;;5012005;28;20467;-69
2021/01/03 08:06:19;;;;;;;22.10;12.03;;;-0.50;99.90;;;;;;5012135;28;20486;-69
2021/01/03 08:08:53;;;;;;;24.40;13.20;;;-0.50;99.90;;;;;;5012068;28;20424;-69
2021/01/03 08:11:26;;;;;;;30.80;12.73;;;-0.60;99.90;;;;;;5011899;28;20430;-69
2021/01/03 08:13:59;;;;;;;21.90;12.20;;;-0.50;99.90;;;;;;5011917;28;20810;-69
2021/01/03 08:16:29;;;;;;;21.77;12.07;;;-0.50;99.90;;;;;;5012020;28;20425;-69
2021/01/03 08:19:03;;;;;;;26.40;14.60;;;-0.50;99.90;;;;;;5011555;28;20453;-69
2021/01/03 08:21:32;;;;;;;25.47;13.70;;;-0.50;99.90;;;;;;5011736;28;20864;-69
2021/01/03 08:24:04;;;;;;;18.80;10.40;;;-0.50;99.90;;;;;;5011599;28;20939;-68
2021/01/03 08:26:38;;;;;;;20.13;11.57;;;-0.60;99.90;;;;;;5011973;28;20440;-68
2021/01/03 08:29:15;;;;;;;17.27;10.53;;;-0.60;99.90;;;;;;5011649;28;20445;-70
2021/01/03 08:31:48;;;;;;;15.07;10.23;;;-0.50;99.90;;;;;;5011391;28;20472;-71
2021/01/03 08:34:17;;;;;;;20.13;11.40;;;-0.50;99.90;;;;;;5010816;28;20433;-70
2021/01/03 08:36:45;;;;;;;21.23;11.60;;;-0.50;99.90;;;;;;5011736;28;20433;-70
2021/01/03 08:39:34;;;;;;;19.20;10.30;;;-0.50;99.90;;;;;;5010778;28;20477;-69
2021/01/03 08:42:07;;;;;;;16.73;9.47;;;-0.50;99.90;;;;;;5000502;28;20470;-71
2021/01/03 08:44:37;;;;;;;17.70;9.30;;;-0.50;99.90;;;;;;5002811;28;21029;-70
2021/01/03 08:47:07;;;;;;;12.40;8.20;;;-0.50;99.90;;;;;;5000803;28;20472;-70
2021/01/03 08:49:34;;;;;;;16.83;11.83;;;-0.50;99.90;;;;;;5002422;28;20437;-70
2021/01/03 08:52:18;;;;;;;20.10;10.13;;;-0.50;99.90;;;;;;5000124;28;20500;-72
2021/01/03 08:55:05;;;;;;;17.60;10.70;;;-0.50;99.90;;;;;;4998964;28;20434;-68
2021/01/03 08:57:32;;;;;;;21.47;9.97;;;-0.40;99.90;;;;;;5010282;28;20523;-68
2021/01/03 08:59:59;;;;;;;16.47;9.80;;;-0.40;99.90;;;;;;5011272;28;20848;-70
2021/01/03 09:02:28;;;;;;;19.80;10.87;;;-0.30;99.90;;;;;;5010802;28;20475;-69
2021/01/03 09:04:58;;;;;;;24.33;12.20;;;-0.20;99.90;;;;;;5010218;28;20445;-71
2021/01/03 09:07:28;;;;;;;19.40;11.57;;;-0.20;99.90;;;;;;5011216;28;20425;-71
2021/01/03 09:09:55;;;;;;;18.70;11.00;;;-0.20;99.90;;;;;;5010929;28;20428;-71
2021/01/03 09:12:37;;;;;;;18.23;11.43;;;-0.10;99.90;;;;;;5010065;28;20551;-71
2021/01/03 09:15:08;;;;;;;19.67;9.97;;;-0.10;99.90;;;;;;5010115;28;20421;-71
2021/01/03 09:17:37;;;;;;;19.23;10.57;;;0.00;99.90;;;;;;5009153;28;20468;-71
2021/01/03 09:20:14;;;;;;;15.60;9.37;;;-0.10;99.90;;;;;;5010683;28;20480;-70
2021/01/03 09:22:46;;;;;;;20.53;10.47;;;0.00;99.90;;;;;;5010900;28;20444;-70
2021/01/03 09:25:21;;;;;;;17.87;11.10;;;0.00;99.90;;;;;;5010887;28;20440;-70
2021/01/03 09:27:53;;;;;;;16.80;10.53;;;0.10;99.90;;;;;;4997062;28;20436;-68
2021/01/03 09:30:29;;;;;;;22.47;11.10;;;0.10;99.90;;;;;;5000146;28;20434;-70
2021/01/03 09:33:07;;;;;;;21.40;12.03;;;0.10;99.90;;;;;;4998165;28;20466;-72
2021/01/03 09:36:02;;;;;;;19.30;10.67;;;0.20;99.90;;;;;;4999287;28;20441;-71
2021/01/03 09:39:20;;;;;;;18.53;10.87;;;0.20;99.90;;;;;;5002271;28;20459;-72
2021/01/03 09:42:24;;;;;;;20.30;9.50;;;0.30;99.90;;;;;;5002617;28;20496;-71
2021/01/03 09:44:58;;;;;;;18.23;9.83;;;0.30;99.90;;;;;;4990716;28;20425;-70
2021/01/03 09:47:40;;;;;;;19.70;10.10;;;0.30;99.90;;;;;;5000356;28;20456;-71
2021/01/03 09:50:21;;;;;;;20.53;11.87;;;0.30;99.90;;;;;;5010293;28;20452;-71
2021/01/03 09:52:54;;;;;;;21.60;12.30;;;0.40;99.90;;;;;;4997060;28;20457;-70
2021/01/03 09:55:26;;;;;;;18.20;11.40;;;0.40;99.90;;;;;;4991301;28;20437;-69
2021/01/03 09:58:01;;;;;;;20.00;10.50;;;0.40;99.90;;;;;;4990440;28;20441;-71
2021/01/03 10:00:51;;;;;;;19.07;11.50;;;0.40;99.90;;;;;;4991080;28;20539;-72
2021/01/03 10:03:21;;;;;;;23.80;14.47;;;0.40;99.90;;;;;;5006325;28;20460;-71
2021/01/03 10:05:49;;;;;;;22.60;13.20;;;0.40;99.90;;;;;;5013981;28;20432;-69
2021/01/03 10:08:22;;;;;;;20.63;11.33;;;0.40;99.90;;;;;;5013356;28;20444;-71
2021/01/03 10:10:53;;;;;;;16.67;10.63;;;0.50;99.90;;;;;;5014185;28;20455;-72
2021/01/03 10:13:21;;;;;;;21.77;12.57;;;0.50;99.90;;;;;;5014162;28;20465;-71
2021/01/03 10:15:49;;;;;;;19.43;12.10;;;0.40;99.90;;;;;;5013605;28;20424;-70
2021/01/03 10:18:33;;;;;;;25.37;12.93;;;0.50;99.90;;;;;;5014152;28;20523;-70
2021/01/03 10:21:19;;;;;;;18.70;11.70;;;0.60;99.90;;;;;;5012956;28;20838;-70
2021/01/03 10:23:53;;;;;;;33.60;19.60;;;0.70;99.90;;;;;;5014101;28;20809;-70
2021/01/03 10:26:29;;;;;;;32.20;18.60;;;0.80;99.90;;;;;;5013528;28;20424;-70
2021/01/03 10:28:56;;;;;;;24.50;12.10;;;0.70;99.90;;;;;;5012692;28;20447;-71
2021/01/03 10:31:24;;;;;;;19.63;12.20;;;0.70;99.90;;;;;;5013829;28;20902;-70
2021/01/03 10:33:51;;;;;;;23.77;12.03;;;0.80;99.90;;;;;;5013018;28;20436;-70
2021/01/03 10:36:20;;;;;;;21.57;12.77;;;0.80;99.90;;;;;;5014013;28;20821;-70
2021/01/03 10:38:47;;;;;;;23.73;11.93;;;0.80;99.90;;;;;;5013571;28;20424;-70
2021/01/03 10:41:16;;;;;;;23.93;12.57;;;0.80;99.90;;;;;;5013115;28;20468;-71
2021/01/03 10:43:47;;;;;;;26.20;12.70;;;0.80;99.90;;;;;;5013437;28;20463;-73
2021/01/03 10:46:17;;;;;;;23.43;12.83;;;0.90;99.90;;;;;;5013466;28;20429;-72
2021/01/03 10:48:47;;;;;;;30.20;15.90;;;0.90;99.90;;;;;;5012535;28;20460;-71
2021/01/03 10:51:14;;;;;;;25.00;13.70;;;1.00;99.90;;;;;;5013260;28;20436;-73
2021/01/03 10:53:41;;;;;;;29.87;14.27;;;1.00;99.90;;;;;;5012415;28;20467;-70
2021/01/03 10:56:09;;;;;;;21.73;13.50;;;1.00;99.90;;;;;;5012772;28;21017;-73
2021/01/03 10:58:40;;;;;;;27.33;14.20;;;1.00;99.90;;;;;;5013522;28;20810;-73
2021/01/03 11:01:08;;;;;;;22.60;12.53;;;0.90;99.90;;;;;;5013114;28;20479;-71
2021/01/03 11:03:34;;;;;;;23.70;13.27;;;0.90;99.90;;;;;;5013322;28;20429;-73
2021/01/03 11:06:01;;;;;;;27.23;12.77;;;1.00;99.90;;;;;;5011603;28;20445;-72
2021/01/03 11:08:28;;;;;;;24.70;13.27;;;1.00;99.90;;;;;;5013223;28;20478;-74
2021/01/03 11:10:54;;;;;;;21.93;13.10;;;1.00;99.90;;;;;;5012860;28;20462;-74
2021/01/03 11:13:21;;;;;;;24.90;12.77;;;1.00;99.90;;;;;;5013066;28;20476;-72
2021/01/03 11:15:49;;;;;;;17.80;11.27;;;1.10;99.90;;;;;;5012159;28;20433;-73
2021/01/03 11:18:16;;;;;;;26.90;13.23;;;1.00;99.90;;;;;;5013136;28;20425;-74
2021/01/03 11:20:43;;;;;;;24.80;14.70;;;0.90;99.90;;;;;;5006544;28;20480;-75
2021/01/03 11:23:10;;;;;;;22.30;12.33;;;0.90;99.90;;;;;;5004129;28;20478;-75
2021/01/03 11:25:37;;;;;;;22.30;12.53;;;0.90;99.90;;;;;;5012441;28;20425;-74
2021/01/03 11:28:05;;;;;;;22.97;13.43;;;0.80;99.90;;;;;;5012868;28;20467;-75
2021/01/03 11:30:31;;;;;;;19.17;11.90;;;0.80;99.90;;;;;;5012819;28;20432;-74
2021/01/03 11:32:58;;;;;;;24.73;14.07;;;0.90;99.90;;;;;;5012699;28;20476;-74
2021/01/03 11:35:26;;;;;;;20.97;12.50;;;0.90;99.90;;;;;;5011470;28;20504;-74
2021/01/03 11:37:52;;;;;;;28.53;14.07;;;1.00;99.90;;;;;;5011911;28;20463;-76
2021/01/03 11:40:19;;;;;;;22.83;13.70;;;0.90;99.90;;;;;;5012261;28;20506;-71
2021/01/03 11:42:46;;;;;;;24.73;14.10;;;0.90;99.90;;;;;;5012281;28;20468;-70
2021/01/03 11:45:15;;;;;;;23.97;13.60;;;1.00;99.90;;;;;;5012650;28;20428;-73
2021/01/03 11:47:42;;;;;;;24.83;15.53;;;1.00;99.90;;;;;;5012404;28;20440;-71
2021/01/03 11:50:13;;;;;;;24.87;15.33;;;1.00;99.90;;;;;;5012297;28;20507;-71
2021/01/03 11:52:41;;;;;;;27.60;13.10;;;1.00;99.90;;;;;;5012171;28;20445;-72
2021/01/03 11:55:10;;;;;;;20.10;12.57;;;1.00;99.90;;;;;;5011688;28;21015;-71
2021/01/03 11:57:36;;;;;;;25.77;13.10;;;1.00;99.90;;;;;;5012498;28;20429;-73
2021/01/03 12:00:04;;;;;;;26.07;13.20;;;1.10;99.90;;;;;;5012811;28;20504;-70
2021/01/03 12:02:31;;;;;;;26.07;13.33;;;1.10;99.90;;;;;;5012061;28;20476;-72
2021/01/03 12:04:58;;;;;;;25.90;14.13;;;1.00;99.90;;;;;;5012197;28;20432;-68
2021/01/03 12:07:24;;;;;;;21.57;12.77;;;1.10;99.90;;;;;;5012150;28;20428;-69
2021/01/03 12:09:52;;;;;;;24.77;13.03;;;1.10;99.90;;;;;;5011699;28;20437;-72
2021/01/03 12:12:21;;;;;;;25.50;14.03;;;1.10;99.90;;;;;;5011678;28;20451;-70
2021/01/03 12:14:48;;;;;;;27.87;15.73;;;1.10;99.90;;;;;;5012135;28;20424;-71
2021/01/03 12:17:18;;;;;;;29.73;17.50;;;1.00;99.90;;;;;;5008623;28;20458;-71
2021/01/03 12:19:45;;;;;;;28.27;17.20;;;1.10;99.90;;;;;;5031306;28;20570;-71
2021/01/03 12:22:12;;;;;;;25.00;13.60;;;1.10;99.90;;;;;;5022464;28;20474;-71
2021/01/03 12:24:39;;;;;;;28.00;14.10;;;1.10;99.90;;;;;;5011113;28;20921;-70
2021/01/03 12:27:09;;;;;;;28.10;14.00;;;1.00;99.90;;;;;;5011564;28;20433;-70
2021/01/03 12:29:36;;;;;;;23.87;12.83;;;1.00;99.90;;;;;;5011245;28;20460;-71
2021/01/03 12:32:05;;;;;;;23.60;14.60;;;0.90;99.90;;;;;;5011181;28;20448;-71
2021/01/03 12:34:32;;;;;;;26.83;14.80;;;0.90;99.90;;;;;;5011812;28;20444;-71
2021/01/03 12:37:04;;;;;;;23.10;12.87;;;0.80;99.90;;;;;;5011664;28;21023;-70
2021/01/03 12:39:31;;;;;;;28.00;15.00;;;0.70;99.90;;;;;;5011105;28;20523;-70
2021/01/03 12:41:57;;;;;;;21.10;11.70;;;0.60;99.90;;;;;;5011425;28;20444;-70
2021/01/03 12:44:25;;;;;;;22.60;13.80;;;0.60;99.90;;;;;;5011236;28;20922;-72
2021/01/03 12:46:51;;;;;;;22.40;12.23;;;0.60;99.90;;;;;;5011038;28;20439;-70
2021/01/03 12:49:18;;;;;;;23.97;14.93;;;0.60;99.90;;;;;;5010759;28;20425;-71
2021/01/03 12:51:45;;;;;;;25.03;14.10;;;0.60;99.90;;;;;;5010325;28;20837;-70
2021/01/03 12:54:12;;;;;;;25.07;14.60;;;0.60;99.90;;;;;;5011383;28;20421;-70